Minot, ND

1:55 AM CDT on May 25, 2017 (GMT -0500)
Minot International

Weather History for KMOT - December, 2013

Change the Weather History Date:

Monday, December 2, 2013

  Actual Average Record
Temperature  
Mean Temperature 21 °F 20 °F  
Max Temperature 24 °F 28 °F 58 °F (1925)
Min Temperature 18 °F 12 °F -27 °F (1919)
Degree Days  
Heating Degree Days 44 45  
Month to date heating degree days 89 90  
Since 1 July heating degree days 2144 2148  
Moisture  
Dew Point 16 °F    
Average Humidity 90    
Maximum Humidity 96    
Minimum Humidity 84    
Precipitation  
Precipitation 0.08 in 0.02 in 0.53 in (1982)
Month to date precipitation 0.11 0.03  
Year to date precipitation 24.92 16.84  
Sea Level Pressure  
Sea Level Pressure 29.73 in    
Wind  
Wind Speed 12 mph (NE)    
Max Wind Speed 20 mph    
Max Gust Speed 23 mph    
Visibility 3 miles    
Events Snow    
T = Trace of Precipitation, MM = Missing Value Source: NWS Daily Summary

Daily Weather History Graph

Daily Weather History Graph

Search for Another Location

Airport or City:

Trip Planner

Search our weather history database for the weather conditions in past years. The results will help you decide how hot, cold, wet, or windy it might be!

Date:

Astronomy

Dec. 02, 2013 Rise Set
Actual Time 8:16 AM CST 4:52 PM CST
Civil Twilight 7:40 AM CST 5:28 PM CST
Nautical Twilight 7:01 AM CST 6:07 PM CST
Astronomical Twilight 6:23 AM CST 6:45 PM CST
Moon 7:40 AM CST (12/2) 4:59 PM CST (12/2)
Length of Visible Light 9h 47m
Length of Day
8h 36m
Waning Crescent, 0% of the Moon is Illuminated
Dec 2
Waning Crescent
Dec 2
New
Dec 9
First Quarter
Dec 17
Full
Dec 25
Last Quarter

Hourly Weather History & Observations

Time (CST) Temp. Windchill Dew Point Humidity Pressure Visibility Wind Dir Wind Speed Gust Speed Precip Events Conditions
12:14 AM 24.1 °F 13.7 °F 21.0 °F 88% 29.67 in 2.0 mi East 10.4 mph - 0.00 in Snow Light Snow
12:17 AM 24.1 °F 13.7 °F 21.0 °F 88% 29.67 in 1.8 mi East 10.4 mph - 0.00 in Snow Light Snow
12:54 AM 23.0 °F 11.7 °F 21.0 °F 92% 29.74 in 1.8 mi East 11.5 mph - 0.00 in Snow Light Snow
1:06 AM 23.0 °F 12.4 °F 21.0 °F 92% 29.65 in 2.0 mi East 10.4 mph - 0.00 in Snow Light Snow
1:30 AM 23.0 °F 12.4 °F 19.9 °F 88% 29.64 in 2.0 mi East 10.4 mph - 0.00 in Snow Light Snow
1:54 AM 23.0 °F 12.4 °F 19.9 °F 88% 29.72 in 1.8 mi ENE 10.4 mph - 0.01 in Snow Light Snow
2:21 AM 21.9 °F 11.0 °F 19.0 °F 89% 29.64 in 1.5 mi ENE 10.4 mph - 0.01 in Snow Light Snow
2:54 AM 21.9 °F 11.7 °F 19.0 °F 89% 29.71 in 1.2 mi ENE 9.2 mph - 0.02 in Snow Light Snow
3:54 AM 21.9 °F 11.0 °F 19.0 °F 89% 29.70 in 1.5 mi ENE 10.4 mph - 0.01 in Snow Light Snow
4:33 AM 21.9 °F 11.0 °F 19.0 °F 89% 29.61 in 2.0 mi ENE 10.4 mph - 0.01 in Snow Light Snow
4:54 AM 21.9 °F 11.7 °F 19.0 °F 89% 29.68 in 1.5 mi ENE 9.2 mph - 0.01 in Snow Light Snow
5:24 AM 21.9 °F 11.0 °F 19.0 °F 89% 29.60 in 2.0 mi NE 10.4 mph - 0.01 in Snow Light Snow
5:54 AM 21.9 °F 9.8 °F 19.0 °F 89% 29.68 in 2.5 mi NE 12.7 mph - 0.01 in Snow Light Snow
6:24 AM 21.0 °F 9.3 °F 18.0 °F 88% 29.60 in 1.8 mi NE 11.5 mph - 0.00 in Snow Light Snow
6:54 AM 19.9 °F 6.7 °F 17.1 °F 89% 29.68 in 1.5 mi NE 13.8 mph - 0.00 in Snow Light Snow
7:39 AM 19.9 °F 5.7 °F 16.0 °F 85% 29.60 in 2.0 mi NE 16.1 mph - 0.00 in Snow Light Snow
7:52 AM 19.4 °F 5.5 °F 15.8 °F 86% 29.61 in 3.0 mi NE 15.0 mph - 0.00 in Snow Light Snow
7:54 AM 19.9 °F 6.7 °F 16.0 °F 85% 29.69 in 3.0 mi NE 13.8 mph - 0.00 in Snow Light Snow
8:25 AM 19.9 °F 6.7 °F 16.0 °F 85% 29.62 in 1.8 mi NE 13.8 mph - 0.00 in Snow Light Snow
8:46 AM 19.9 °F 7.3 °F 16.0 °F 85% 29.63 in 3.0 mi NE 12.7 mph - 0.00 in Snow Light Snow
8:54 AM 19.9 °F 6.2 °F 16.0 °F 85% 29.71 in 5.0 mi NE 15.0 mph - 0.00 in   Overcast
9:13 AM 19.9 °F 7.3 °F 16.0 °F 85% 29.63 in 1.8 mi NE 12.7 mph - 0.00 in Snow Light Snow
9:54 AM 19.9 °F 7.9 °F 16.0 °F 85% 29.73 in 1.0 mi NE 11.5 mph - 0.00 in Snow Light Snow
10:54 AM 19.9 °F 7.3 °F 17.1 °F 89% 29.73 in 1.5 mi NNE 12.7 mph - 0.00 in Snow Light Snow
11:24 AM 19.9 °F 7.3 °F 17.1 °F 89% 29.65 in 1.5 mi NNE 12.7 mph - 0.00 in Snow Light Snow
11:54 AM 19.9 °F 6.7 °F 16.0 °F 85% 29.75 in 0.8 mi NNE 13.8 mph - 0.00 in Snow Light Snow
12:14 PM 19.9 °F 5.7 °F 16.0 °F 85% 29.67 in 1.0 mi NNE 16.1 mph - 0.00 in Snow Light Snow
12:28 PM 19.9 °F 6.2 °F 16.0 °F 85% 29.67 in 0.8 mi NNE 15.0 mph - 0.00 in Snow Light Snow
12:42 PM 19.9 °F 4.8 °F 16.0 °F 85% 29.67 in 1.0 mi NNE 18.4 mph - 0.01 in Snow Light Snow
12:54 PM 19.9 °F 5.7 °F 16.0 °F 85% 29.75 in 1.2 mi NNE 16.1 mph - 0.01 in Snow Light Snow
1:12 PM 19.0 °F 4.5 °F 16.0 °F 88% 29.67 in 0.8 mi NE 16.1 mph - 0.00 in Snow Light Snow
1:19 PM 19.9 °F 7.9 °F 16.0 °F 85% 29.67 in 1.0 mi NNE 11.5 mph - 0.00 in Snow Light Snow
1:54 PM 19.0 °F 5.6 °F 15.1 °F 85% 29.75 in 1.0 mi NNE 13.8 mph - 0.00 in Snow Light Snow
2:05 PM 19.0 °F 4.0 °F 15.1 °F 85% 29.67 in 1.0 mi NE 17.3 mph - 0.00 in Snow Light Snow
2:39 PM 19.9 °F 4.8 °F 15.1 °F 81% 29.68 in 2.5 mi NE 18.4 mph - 0.00 in Snow Light Snow
2:47 PM 19.9 °F 5.7 °F 15.1 °F 81% 29.69 in 5.0 mi NE 16.1 mph - 0.00 in Snow Light Snow
2:54 PM 19.9 °F 5.7 °F 15.1 °F 81% 29.78 in 5.0 mi NE 16.1 mph - 0.00 in Snow Light Snow
3:43 PM 19.9 °F 8.6 °F 16.0 °F 85% 29.71 in 9.0 mi NNE 10.4 mph - 0.00 in Snow Light Snow
3:54 PM 19.9 °F 8.6 °F 16.0 °F 85% 29.81 in 2.0 mi NNE 10.4 mph - 0.00 in Snow Light Snow
4:01 PM 19.9 °F 8.6 °F 16.0 °F 85% 29.72 in 1.0 mi NNE 10.4 mph - 0.00 in Snow Light Snow
4:08 PM 19.9 °F 10.1 °F 16.0 °F 85% 29.72 in 0.8 mi NNE 8.1 mph - 0.00 in Snow Light Snow
4:28 PM 19.9 °F 10.1 °F 16.0 °F 85% 29.73 in 1.0 mi NNE 8.1 mph - 0.00 in Snow Light Snow
4:42 PM 19.9 °F 11.1 °F 16.0 °F 85% 29.73 in 2.5 mi NNE 6.9 mph - 0.00 in Snow Light Snow
4:54 PM 19.9 °F 9.3 °F 16.0 °F 85% 29.83 in 1.8 mi NNE 9.2 mph - 0.00 in Snow Light Snow
5:01 PM 19.9 °F 7.3 °F 16.0 °F 85% 29.74 in 2.0 mi NNE 12.7 mph - 0.00 in Snow Light Snow
5:12 PM 19.9 °F 6.7 °F 15.1 °F 81% 29.75 in 6.0 mi NNE 13.8 mph - 0.01 in Snow Light Snow
5:22 PM 19.9 °F 7.3 °F 15.1 °F 81% 29.75 in 9.0 mi NE 12.7 mph - 0.01 in Snow Light Snow
5:42 PM 19.9 °F 8.6 °F 15.1 °F 81% 29.76 in 4.0 mi NNE 10.4 mph - 0.01 in Snow Light Snow
5:54 PM 19.0 °F 6.1 °F 15.1 °F 85% 29.85 in 4.0 mi NNE 12.7 mph - 0.01 in Snow Light Snow
6:54 PM 18.0 °F 4.2 °F 14.0 °F 84% 29.88 in 3.0 mi NNE 13.8 mph - 0.00 in Snow Light Snow
7:18 PM 18.0 °F 4.2 °F 14.0 °F 84% 29.79 in 4.0 mi NNE 13.8 mph - 0.00 in Snow Light Snow
7:54 PM 18.0 °F 5.4 °F 14.0 °F 84% 29.89 in 8.0 mi North 11.5 mph - 0.00 in Snow Light Snow
8:01 PM 18.0 °F 4.8 °F 12.9 °F 81% 29.79 in 8.0 mi NNE 12.7 mph - 0.00 in Snow Light Snow
8:15 PM 18.0 °F 4.8 °F 12.9 °F 81% 29.79 in 6.0 mi NNE 12.7 mph - 0.00 in Snow Light Snow
8:47 PM 18.0 °F 6.9 °F 14.0 °F 84% 29.82 in 6.0 mi North 9.2 mph - 0.00 in Snow Light Snow
8:54 PM 18.0 °F 6.1 °F 14.0 °F 84% 29.92 in 7.0 mi North 10.4 mph - 0.00 in Snow Light Snow
9:21 PM 18.0 °F 6.1 °F 14.0 °F 84% 29.83 in 9.0 mi North 10.4 mph - 0.00 in   Overcast
9:54 PM 18.0 °F 5.4 °F 14.0 °F 84% 29.94 in 9.0 mi North 11.5 mph - 0.00 in   Overcast
10:54 PM 18.0 °F 4.8 °F 14.0 °F 84% 29.95 in 10.0 mi NNE 12.7 mph - N/A   Overcast
11:54 PM 18.0 °F 5.4 °F 12.9 °F 81% 29.94 in 10.0 mi NNE 11.5 mph - N/A   Overcast